sensor_id;sensor_type;location;lat;lon;timestamp;P1;durP1;ratioP1;P2;durP2;ratioP2
77400;SDS011;66855;45.414;11.082;2023-02-28T00:00:11;6.00;;;3.90;;
77400;SDS011;66855;45.414;11.082;2023-02-28T00:02:39;2.80;;;1.70;;
77400;SDS011;66855;45.414;11.082;2023-02-28T00:05:07;3.70;;;2.20;;
77400;SDS011;66855;45.414;11.082;2023-02-28T00:07:34;7.40;;;3.30;;
77400;SDS011;66855;45.414;11.082;2023-02-28T00:10:01;6.00;;;3.70;;
77400;SDS011;66855;45.414;11.082;2023-02-28T00:12:27;5.90;;;3.30;;
77400;SDS011;66855;45.414;11.082;2023-02-28T00:14:54;6.30;;;3.50;;
77400;SDS011;66855;45.414;11.082;2023-02-28T00:17:20;4.30;;;3.10;;
77400;SDS011;66855;45.414;11.082;2023-02-28T00:19:48;5.90;;;3.50;;
77400;SDS011;66855;45.414;11.082;2023-02-28T00:22:15;6.60;;;3.50;;
77400;SDS011;66855;45.414;11.082;2023-02-28T00:24:44;5.70;;;3.40;;
77400;SDS011;66855;45.414;11.082;2023-02-28T00:27:11;5.30;;;3.20;;
77400;SDS011;66855;45.414;11.082;2023-02-28T00:29:37;6.10;;;3.80;;
77400;SDS011;66855;45.414;11.082;2023-02-28T00:32:04;5.60;;;3.30;;
77400;SDS011;66855;45.414;11.082;2023-02-28T00:34:32;7.60;;;3.50;;
77400;SDS011;66855;45.414;11.082;2023-02-28T00:37:04;5.20;;;3.20;;
77400;SDS011;66855;45.414;11.082;2023-02-28T00:39:33;5.20;;;3.20;;
77400;SDS011;66855;45.414;11.082;2023-02-28T00:42:00;5.40;;;3.40;;
77400;SDS011;66855;45.414;11.082;2023-02-28T00:44:26;4.30;;;3.10;;
77400;SDS011;66855;45.414;11.082;2023-02-28T00:46:52;5.20;;;3.30;;
77400;SDS011;66855;45.414;11.082;2023-02-28T00:49:23;6.40;;;3.60;;
77400;SDS011;66855;45.414;11.082;2023-02-28T00:51:50;4.80;;;3.50;;
77400;SDS011;66855;45.414;11.082;2023-02-28T00:54:18;5.50;;;3.60;;
77400;SDS011;66855;45.414;11.082;2023-02-28T00:56:46;4.90;;;3.40;;
77400;SDS011;66855;45.414;11.082;2023-02-28T00:59:13;5.90;;;3.40;;
77400;SDS011;66855;45.414;11.082;2023-02-28T01:01:41;6.00;;;3.30;;
77400;SDS011;66855;45.414;11.082;2023-02-28T01:04:08;5.30;;;3.50;;
77400;SDS011;66855;45.414;11.082;2023-02-28T01:06:35;4.70;;;3.30;;
77400;SDS011;66855;45.414;11.082;2023-02-28T01:09:02;5.50;;;3.80;;
77400;SDS011;66855;45.414;11.082;2023-02-28T01:11:30;5.90;;;3.80;;
77400;SDS011;66855;45.414;11.082;2023-02-28T01:13:57;5.70;;;3.60;;
77400;SDS011;66855;45.414;11.082;2023-02-28T01:16:23;6.20;;;3.70;;
77400;SDS011;66855;45.414;11.082;2023-02-28T01:18:49;5.20;;;3.80;;
77400;SDS011;66855;45.414;11.082;2023-02-28T01:21:17;4.80;;;3.40;;
77400;SDS011;66855;45.414;11.082;2023-02-28T01:23:44;6.00;;;3.60;;
77400;SDS011;66855;45.414;11.082;2023-02-28T01:26:15;5.90;;;3.50;;
77400;SDS011;66855;45.414;11.082;2023-02-28T01:28:45;5.00;;;3.30;;
77400;SDS011;66855;45.414;11.082;2023-02-28T01:31:11;5.40;;;3.20;;
77400;SDS011;66855;45.414;11.082;2023-02-28T01:33:38;4.60;;;3.00;;
77400;SDS011;66855;45.414;11.082;2023-02-28T01:38:32;5.40;;;3.40;;
77400;SDS011;66855;45.414;11.082;2023-02-28T01:40:59;5.70;;;3.80;;
77400;SDS011;66855;45.414;11.082;2023-02-28T01:43:27;5.90;;;3.70;;
77400;SDS011;66855;45.414;11.082;2023-02-28T01:45:55;5.30;;;3.40;;
77400;SDS011;66855;45.414;11.082;2023-02-28T01:50:51;5.30;;;3.30;;
77400;SDS011;66855;45.414;11.082;2023-02-28T01:53:19;4.60;;;3.20;;
77400;SDS011;66855;45.414;11.082;2023-02-28T01:55:49;5.60;;;3.30;;
77400;SDS011;66855;45.414;11.082;2023-02-28T01:58:19;4.80;;;3.00;;
77400;SDS011;66855;45.414;11.082;2023-02-28T02:00:46;5.10;;;3.00;;
77400;SDS011;66855;45.414;11.082;2023-02-28T02:03:13;4.50;;;3.10;;
77400;SDS011;66855;45.414;11.082;2023-02-28T02:05:42;4.90;;;3.20;;
77400;SDS011;66855;45.414;11.082;2023-02-28T02:08:15;4.90;;;3.10;;
77400;SDS011;66855;45.414;11.082;2023-02-28T02:10:45;5.90;;;3.30;;
77400;SDS011;66855;45.414;11.082;2023-02-28T02:16:31;7.00;;;3.70;;
77400;SDS011;66855;45.414;11.082;2023-02-28T02:22:14;6.20;;;3.40;;
77400;SDS011;66855;45.414;11.082;2023-02-28T02:35:52;6.00;;;3.10;;
77400;SDS011;66855;45.414;11.082;2023-02-28T02:43:49;5.00;;;3.10;;
77400;SDS011;66855;45.414;11.082;2023-02-28T02:47:01;6.10;;;3.10;;
77400;SDS011;66855;45.414;11.082;2023-02-28T02:49:09;4.80;;;2.90;;
77400;SDS011;66855;45.414;11.082;2023-02-28T02:51:39;4.30;;;2.40;;
77400;SDS011;66855;45.414;11.082;2023-02-28T02:54:14;6.20;;;3.40;;
77400;SDS011;66855;45.414;11.082;2023-02-28T02:56:49;5.30;;;2.90;;
77400;SDS011;66855;45.414;11.082;2023-02-28T02:59:17;5.40;;;3.10;;
77400;SDS011;66855;45.414;11.082;2023-02-28T03:01:51;3.80;;;2.00;;
77400;SDS011;66855;45.414;11.082;2023-02-28T03:04:21;5.10;;;3.00;;
77400;SDS011;66855;45.414;11.082;2023-02-28T03:06:50;3.30;;;2.00;;
77400;SDS011;66855;45.414;11.082;2023-02-28T03:09:24;4.20;;;2.70;;
77400;SDS011;66855;45.414;11.082;2023-02-28T03:11:54;6.30;;;3.20;;
77400;SDS011;66855;45.414;11.082;2023-02-28T03:14:25;4.70;;;2.80;;
77400;SDS011;66855;45.414;11.082;2023-02-28T03:16:58;5.50;;;3.50;;
77400;SDS011;66855;45.414;11.082;2023-02-28T03:22:51;5.80;;;3.30;;
77400;SDS011;66855;45.414;11.082;2023-02-28T03:26:08;4.40;;;2.80;;
77400;SDS011;66855;45.414;11.082;2023-02-28T03:28:30;5.50;;;3.10;;
77400;SDS011;66855;45.414;11.082;2023-02-28T03:31:06;5.20;;;3.40;;
77400;SDS011;66855;45.414;11.082;2023-02-28T03:33:42;4.20;;;3.00;;
77400;SDS011;66855;45.414;11.082;2023-02-28T03:36:27;4.30;;;2.80;;
77400;SDS011;66855;45.414;11.082;2023-02-28T03:38:59;4.90;;;3.30;;
77400;SDS011;66855;45.414;11.082;2023-02-28T03:41:31;5.20;;;3.20;;
77400;SDS011;66855;45.414;11.082;2023-02-28T03:44:05;7.20;;;4.00;;
77400;SDS011;66855;45.414;11.082;2023-02-28T03:46:36;5.40;;;3.10;;
77400;SDS011;66855;45.414;11.082;2023-02-28T03:51:36;5.60;;;3.30;;
77400;SDS011;66855;45.414;11.082;2023-02-28T03:54:05;5.70;;;3.80;;
77400;SDS011;66855;45.414;11.082;2023-02-28T03:56:35;5.50;;;3.20;;
77400;SDS011;66855;45.414;11.082;2023-02-28T04:01:38;4.60;;;3.50;;
77400;SDS011;66855;45.414;11.082;2023-02-28T04:04:07;4.90;;;3.20;;
77400;SDS011;66855;45.414;11.082;2023-02-28T04:06:34;5.10;;;2.90;;
77400;SDS011;66855;45.414;11.082;2023-02-28T04:09:02;5.80;;;3.00;;
77400;SDS011;66855;45.414;11.082;2023-02-28T04:11:32;5.50;;;3.10;;
77400;SDS011;66855;45.414;11.082;2023-02-28T04:13:59;5.40;;;3.20;;
77400;SDS011;66855;45.414;11.082;2023-02-28T04:16:25;7.10;;;3.20;;
77400;SDS011;66855;45.414;11.082;2023-02-28T04:19:02;4.50;;;3.20;;
77400;SDS011;66855;45.414;11.082;2023-02-28T04:21:31;4.40;;;3.00;;
77400;SDS011;66855;45.414;11.082;2023-02-28T04:23:59;4.80;;;3.30;;
77400;SDS011;66855;45.414;11.082;2023-02-28T04:26:30;7.20;;;3.50;;
77400;SDS011;66855;45.414;11.082;2023-02-28T04:28:57;6.20;;;3.80;;
77400;SDS011;66855;45.414;11.082;2023-02-28T04:31:23;5.50;;;3.10;;
77400;SDS011;66855;45.414;11.082;2023-02-28T04:33:50;6.30;;;3.50;;
77400;SDS011;66855;45.414;11.082;2023-02-28T04:36:16;6.40;;;3.50;;
77400;SDS011;66855;45.414;11.082;2023-02-28T04:38:43;6.80;;;3.50;;
77400;SDS011;66855;45.414;11.082;2023-02-28T04:41:10;7.20;;;3.40;;
77400;SDS011;66855;45.414;11.082;2023-02-28T04:43:36;4.10;;;2.70;;
77400;SDS011;66855;45.414;11.082;2023-02-28T04:46:03;5.40;;;2.50;;
77400;SDS011;66855;45.414;11.082;2023-02-28T04:48:31;5.60;;;3.20;;
77400;SDS011;66855;45.414;11.082;2023-02-28T04:51:06;6.30;;;3.40;;
77400;SDS011;66855;45.414;11.082;2023-02-28T04:56:01;5.80;;;3.50;;
77400;SDS011;66855;45.414;11.082;2023-02-28T04:58:27;4.40;;;2.90;;
77400;SDS011;66855;45.414;11.082;2023-02-28T05:00:54;7.70;;;3.30;;
77400;SDS011;66855;45.414;11.082;2023-02-28T05:03:20;5.60;;;3.40;;
77400;SDS011;66855;45.414;11.082;2023-02-28T05:05:47;5.30;;;3.30;;
77400;SDS011;66855;45.414;11.082;2023-02-28T05:08:14;5.20;;;3.30;;
77400;SDS011;66855;45.414;11.082;2023-02-28T05:10:40;5.30;;;3.20;;
77400;SDS011;66855;45.414;11.082;2023-02-28T05:13:06;6.20;;;3.60;;
77400;SDS011;66855;45.414;11.082;2023-02-28T05:15:32;4.40;;;2.80;;
77400;SDS011;66855;45.414;11.082;2023-02-28T05:18:01;5.70;;;3.70;;
77400;SDS011;66855;45.414;11.082;2023-02-28T05:20:27;4.10;;;2.50;;
77400;SDS011;66855;45.414;11.082;2023-02-28T05:22:53;2.90;;;1.90;;
77400;SDS011;66855;45.414;11.082;2023-02-28T05:25:20;5.00;;;3.00;;
77400;SDS011;66855;45.414;11.082;2023-02-28T05:27:49;5.10;;;3.20;;
77400;SDS011;66855;45.414;11.082;2023-02-28T05:30:16;4.50;;;2.90;;
77400;SDS011;66855;45.414;11.082;2023-02-28T05:32:42;5.20;;;2.70;;
77400;SDS011;66855;45.414;11.082;2023-02-28T05:35:12;5.80;;;2.80;;
77400;SDS011;66855;45.414;11.082;2023-02-28T05:37:38;6.10;;;3.30;;
77400;SDS011;66855;45.414;11.082;2023-02-28T05:40:05;5.70;;;3.30;;
77400;SDS011;66855;45.414;11.082;2023-02-28T05:42:33;6.50;;;3.50;;
77400;SDS011;66855;45.414;11.082;2023-02-28T05:44:59;5.70;;;3.10;;
77400;SDS011;66855;45.414;11.082;2023-02-28T05:47:25;5.70;;;2.80;;
77400;SDS011;66855;45.414;11.082;2023-02-28T05:49:51;5.90;;;3.00;;
77400;SDS011;66855;45.414;11.082;2023-02-28T05:52:17;5.80;;;2.90;;
77400;SDS011;66855;45.414;11.082;2023-02-28T05:54:43;5.30;;;2.70;;
77400;SDS011;66855;45.414;11.082;2023-02-28T05:57:10;4.10;;;2.60;;
77400;SDS011;66855;45.414;11.082;2023-02-28T05:59:49;3.20;;;1.80;;
77400;SDS011;66855;45.414;11.082;2023-02-28T06:02:16;6.70;;;4.00;;
77400;SDS011;66855;45.414;11.082;2023-02-28T06:04:43;6.60;;;3.50;;
77400;SDS011;66855;45.414;11.082;2023-02-28T06:07:10;6.60;;;3.60;;
77400;SDS011;66855;45.414;11.082;2023-02-28T06:09:36;3.50;;;2.00;;
77400;SDS011;66855;45.414;11.082;2023-02-28T06:12:03;5.60;;;2.80;;
77400;SDS011;66855;45.414;11.082;2023-02-28T06:14:35;6.00;;;3.60;;
77400;SDS011;66855;45.414;11.082;2023-02-28T06:17:02;4.10;;;2.20;;
77400;SDS011;66855;45.414;11.082;2023-02-28T06:19:28;7.20;;;3.60;;
77400;SDS011;66855;45.414;11.082;2023-02-28T06:21:56;6.30;;;4.00;;
77400;SDS011;66855;45.414;11.082;2023-02-28T06:24:23;4.80;;;2.80;;
77400;SDS011;66855;45.414;11.082;2023-02-28T06:26:50;8.10;;;4.20;;
77400;SDS011;66855;45.414;11.082;2023-02-28T06:29:16;7.10;;;3.60;;
77400;SDS011;66855;45.414;11.082;2023-02-28T06:31:44;6.00;;;3.10;;
77400;SDS011;66855;45.414;11.082;2023-02-28T06:34:11;6.50;;;3.70;;
77400;SDS011;66855;45.414;11.082;2023-02-28T06:36:39;6.90;;;4.40;;
77400;SDS011;66855;45.414;11.082;2023-02-28T06:39:06;6.50;;;4.00;;
77400;SDS011;66855;45.414;11.082;2023-02-28T06:41:33;7.80;;;4.10;;
77400;SDS011;66855;45.414;11.082;2023-02-28T06:44:20;8.60;;;3.80;;
77400;SDS011;66855;45.414;11.082;2023-02-28T06:46:47;7.30;;;3.50;;
77400;SDS011;66855;45.414;11.082;2023-02-28T06:49:14;5.40;;;3.30;;
77400;SDS011;66855;45.414;11.082;2023-02-28T06:51:42;6.90;;;3.70;;
77400;SDS011;66855;45.414;11.082;2023-02-28T06:54:12;6.60;;;3.60;;
77400;SDS011;66855;45.414;11.082;2023-02-28T06:56:38;7.10;;;3.50;;
77400;SDS011;66855;45.414;11.082;2023-02-28T06:59:04;7.60;;;4.10;;
77400;SDS011;66855;45.414;11.082;2023-02-28T07:01:31;6.30;;;3.70;;
77400;SDS011;66855;45.414;11.082;2023-02-28T07:04:00;11.80;;;4.40;;
77400;SDS011;66855;45.414;11.082;2023-02-28T07:06:26;7.90;;;4.20;;
77400;SDS011;66855;45.414;11.082;2023-02-28T07:08:53;7.30;;;4.30;;
77400;SDS011;66855;45.414;11.082;2023-02-28T07:11:23;6.80;;;4.20;;
77400;SDS011;66855;45.414;11.082;2023-02-28T07:13:52;6.10;;;2.70;;
77400;SDS011;66855;45.414;11.082;2023-02-28T07:16:19;6.70;;;4.00;;
77400;SDS011;66855;45.414;11.082;2023-02-28T07:18:45;8.00;;;3.50;;
77400;SDS011;66855;45.414;11.082;2023-02-28T07:21:11;7.30;;;4.10;;
77400;SDS011;66855;45.414;11.082;2023-02-28T07:23:38;7.40;;;3.90;;
77400;SDS011;66855;45.414;11.082;2023-02-28T07:26:05;14.20;;;4.00;;
77400;SDS011;66855;45.414;11.082;2023-02-28T07:28:32;14.50;;;4.20;;
77400;SDS011;66855;45.414;11.082;2023-02-28T07:31:05;7.40;;;4.10;;
77400;SDS011;66855;45.414;11.082;2023-02-28T07:33:31;7.60;;;4.00;;
77400;SDS011;66855;45.414;11.082;2023-02-28T07:36:00;10.20;;;4.10;;
77400;SDS011;66855;45.414;11.082;2023-02-28T07:38:27;8.00;;;3.80;;
77400;SDS011;66855;45.414;11.082;2023-02-28T07:40:53;7.40;;;4.30;;
77400;SDS011;66855;45.414;11.082;2023-02-28T07:43:19;7.40;;;4.10;;
77400;SDS011;66855;45.414;11.082;2023-02-28T07:45:45;15.60;;;4.70;;
77400;SDS011;66855;45.414;11.082;2023-02-28T07:48:12;5.40;;;3.30;;
77400;SDS011;66855;45.414;11.082;2023-02-28T07:50:38;7.30;;;3.50;;
77400;SDS011;66855;45.414;11.082;2023-02-28T07:53:04;7.50;;;3.90;;
77400;SDS011;66855;45.414;11.082;2023-02-28T07:55:30;9.20;;;4.50;;
77400;SDS011;66855;45.414;11.082;2023-02-28T07:57:57;21.80;;;5.50;;
77400;SDS011;66855;45.414;11.082;2023-02-28T08:00:24;6.80;;;4.00;;
77400;SDS011;66855;45.414;11.082;2023-02-28T08:02:50;10.20;;;4.20;;
77400;SDS011;66855;45.414;11.082;2023-02-28T08:05:17;8.20;;;3.60;;
77400;SDS011;66855;45.414;11.082;2023-02-28T08:07:48;13.20;;;4.50;;
77400;SDS011;66855;45.414;11.082;2023-02-28T08:10:15;7.00;;;4.10;;
77400;SDS011;66855;45.414;11.082;2023-02-28T08:12:41;7.30;;;4.20;;
77400;SDS011;66855;45.414;11.082;2023-02-28T08:15:07;9.80;;;4.30;;
77400;SDS011;66855;45.414;11.082;2023-02-28T08:17:34;7.10;;;3.60;;
77400;SDS011;66855;45.414;11.082;2023-02-28T08:20:01;7.00;;;4.10;;
77400;SDS011;66855;45.414;11.082;2023-02-28T08:22:27;7.20;;;4.30;;
77400;SDS011;66855;45.414;11.082;2023-02-28T08:24:53;14.70;;;4.70;;
77400;SDS011;66855;45.414;11.082;2023-02-28T08:27:19;9.80;;;3.80;;
77400;SDS011;66855;45.414;11.082;2023-02-28T08:29:45;8.20;;;3.90;;
77400;SDS011;66855;45.414;11.082;2023-02-28T08:32:11;7.90;;;4.10;;
77400;SDS011;66855;45.414;11.082;2023-02-28T08:34:54;6.20;;;3.70;;
77400;SDS011;66855;45.414;11.082;2023-02-28T08:37:21;7.30;;;3.90;;
77400;SDS011;66855;45.414;11.082;2023-02-28T08:39:47;7.00;;;4.20;;
77400;SDS011;66855;45.414;11.082;2023-02-28T08:42:13;6.40;;;3.90;;
77400;SDS011;66855;45.414;11.082;2023-02-28T08:44:39;7.80;;;4.30;;
77400;SDS011;66855;45.414;11.082;2023-02-28T08:47:06;8.10;;;3.90;;
77400;SDS011;66855;45.414;11.082;2023-02-28T08:49:32;7.30;;;3.90;;
77400;SDS011;66855;45.414;11.082;2023-02-28T08:52:00;8.00;;;4.20;;
77400;SDS011;66855;45.414;11.082;2023-02-28T08:54:26;9.70;;;3.60;;
77400;SDS011;66855;45.414;11.082;2023-02-28T08:56:54;7.40;;;4.10;;
77400;SDS011;66855;45.414;11.082;2023-02-28T08:59:20;12.40;;;4.40;;
77400;SDS011;66855;45.414;11.082;2023-02-28T09:01:47;7.40;;;4.00;;
77400;SDS011;66855;45.414;11.082;2023-02-28T09:04:13;6.20;;;3.40;;
77400;SDS011;66855;45.414;11.082;2023-02-28T09:06:45;6.90;;;3.50;;
77400;SDS011;66855;45.414;11.082;2023-02-28T09:09:11;6.40;;;4.00;;
77400;SDS011;66855;45.414;11.082;2023-02-28T09:11:37;7.90;;;4.20;;
77400;SDS011;66855;45.414;11.082;2023-02-28T09:14:03;6.70;;;3.50;;
77400;SDS011;66855;45.414;11.082;2023-02-28T09:16:30;5.90;;;3.70;;
77400;SDS011;66855;45.414;11.082;2023-02-28T09:18:57;6.20;;;3.50;;
77400;SDS011;66855;45.414;11.082;2023-02-28T09:21:23;5.40;;;3.60;;
77400;SDS011;66855;45.414;11.082;2023-02-28T09:23:49;6.20;;;4.10;;
77400;SDS011;66855;45.414;11.082;2023-02-28T09:26:17;6.70;;;3.80;;
77400;SDS011;66855;45.414;11.082;2023-02-28T09:28:45;6.20;;;3.60;;
77400;SDS011;66855;45.414;11.082;2023-02-28T09:31:12;7.30;;;3.20;;
77400;SDS011;66855;45.414;11.082;2023-02-28T09:33:40;5.60;;;3.60;;
77400;SDS011;66855;45.414;11.082;2023-02-28T09:36:06;6.30;;;3.60;;
77400;SDS011;66855;45.414;11.082;2023-02-28T09:38:33;11.90;;;4.20;;
77400;SDS011;66855;45.414;11.082;2023-02-28T09:41:00;7.30;;;3.80;;
77400;SDS011;66855;45.414;11.082;2023-02-28T09:43:38;8.30;;;4.80;;
77400;SDS011;66855;45.414;11.082;2023-02-28T09:49:00;7.10;;;4.50;;
77400;SDS011;66855;45.414;11.082;2023-02-28T09:54:21;6.80;;;3.60;;
77400;SDS011;66855;45.414;11.082;2023-02-28T09:56:50;5.90;;;4.30;;
77400;SDS011;66855;45.414;11.082;2023-02-28T10:05:14;8.10;;;4.00;;
77400;SDS011;66855;45.414;11.082;2023-02-28T10:08:02;5.70;;;3.80;;
77400;SDS011;66855;45.414;11.082;2023-02-28T10:10:49;6.90;;;4.50;;
77400;SDS011;66855;45.414;11.082;2023-02-28T10:14:23;7.90;;;4.80;;
77400;SDS011;66855;45.414;11.082;2023-02-28T10:21:35;8.20;;;4.60;;
77400;SDS011;66855;45.414;11.082;2023-02-28T10:24:11;5.70;;;4.00;;
77400;SDS011;66855;45.414;11.082;2023-02-28T10:26:43;15.30;;;4.60;;
77400;SDS011;66855;45.414;11.082;2023-02-28T10:29:11;9.30;;;4.20;;
77400;SDS011;66855;45.414;11.082;2023-02-28T10:31:37;13.80;;;3.40;;
77400;SDS011;66855;45.414;11.082;2023-02-28T10:34:04;11.40;;;4.30;;
77400;SDS011;66855;45.414;11.082;2023-02-28T10:36:32;6.50;;;3.80;;
77400;SDS011;66855;45.414;11.082;2023-02-28T10:39:01;18.90;;;4.30;;
77400;SDS011;66855;45.414;11.082;2023-02-28T10:41:30;7.60;;;4.30;;
77400;SDS011;66855;45.414;11.082;2023-02-28T10:44:12;12.50;;;5.20;;
77400;SDS011;66855;45.414;11.082;2023-02-28T10:46:39;22.40;;;5.30;;
77400;SDS011;66855;45.414;11.082;2023-02-28T10:49:12;9.60;;;4.50;;
77400;SDS011;66855;45.414;11.082;2023-02-28T10:51:41;9.80;;;4.90;;
77400;SDS011;66855;45.414;11.082;2023-02-28T10:54:28;6.00;;;3.90;;
77400;SDS011;66855;45.414;11.082;2023-02-28T11:00:12;6.60;;;4.10;;
77400;SDS011;66855;45.414;11.082;2023-02-28T11:02:47;6.20;;;3.90;;
77400;SDS011;66855;45.414;11.082;2023-02-28T11:05:30;5.70;;;3.90;;
77400;SDS011;66855;45.414;11.082;2023-02-28T11:08:02;5.50;;;3.80;;
77400;SDS011;66855;45.414;11.082;2023-02-28T11:10:38;8.00;;;4.70;;
77400;SDS011;66855;45.414;11.082;2023-02-28T11:13:04;5.90;;;4.10;;
77400;SDS011;66855;45.414;11.082;2023-02-28T11:15:34;7.20;;;4.60;;
77400;SDS011;66855;45.414;11.082;2023-02-28T11:20:52;6.30;;;4.10;;
77400;SDS011;66855;45.414;11.082;2023-02-28T11:23:20;5.90;;;3.80;;
77400;SDS011;66855;45.414;11.082;2023-02-28T11:25:54;8.30;;;4.10;;
77400;SDS011;66855;45.414;11.082;2023-02-28T11:28:33;6.20;;;3.80;;
77400;SDS011;66855;45.414;11.082;2023-02-28T11:36:23;9.70;;;4.40;;
77400;SDS011;66855;45.414;11.082;2023-02-28T11:38:51;7.10;;;4.30;;
77400;SDS011;66855;45.414;11.082;2023-02-28T11:44:19;5.20;;;3.40;;
77400;SDS011;66855;45.414;11.082;2023-02-28T11:46:54;6.50;;;4.20;;
77400;SDS011;66855;45.414;11.082;2023-02-28T11:54:50;6.00;;;4.30;;
77400;SDS011;66855;45.414;11.082;2023-02-28T12:00:19;7.50;;;4.20;;
77400;SDS011;66855;45.414;11.082;2023-02-28T12:11:48;6.30;;;4.20;;
77400;SDS011;66855;45.414;11.082;2023-02-28T12:27:27;6.80;;;4.70;;
77400;SDS011;66855;45.414;11.082;2023-02-28T12:30:17;7.20;;;4.70;;
77400;SDS011;66855;45.414;11.082;2023-02-28T12:33:00;10.60;;;5.20;;
77400;SDS011;66855;45.414;11.082;2023-02-28T12:35:49;7.30;;;4.80;;
77400;SDS011;66855;45.414;11.082;2023-02-28T12:38:22;8.80;;;5.00;;
77400;SDS011;66855;45.414;11.082;2023-02-28T12:41:01;9.00;;;5.40;;
77400;SDS011;66855;45.414;11.082;2023-02-28T12:43:37;9.00;;;4.90;;
77400;SDS011;66855;45.414;11.082;2023-02-28T12:46:14;9.90;;;5.20;;
77400;SDS011;66855;45.414;11.082;2023-02-28T12:48:43;10.70;;;5.40;;
77400;SDS011;66855;45.414;11.082;2023-02-28T12:51:12;10.60;;;5.20;;
77400;SDS011;66855;45.414;11.082;2023-02-28T13:00:36;11.40;;;5.70;;
77400;SDS011;66855;45.414;11.082;2023-02-28T13:02:59;18.40;;;5.90;;
77400;SDS011;66855;45.414;11.082;2023-02-28T13:10:53;8.90;;;4.90;;
77400;SDS011;66855;45.414;11.082;2023-02-28T13:13:26;9.50;;;5.30;;
77400;SDS011;66855;45.414;11.082;2023-02-28T13:16:05;9.10;;;4.50;;
77400;SDS011;66855;45.414;11.082;2023-02-28T13:18:45;9.20;;;5.10;;
77400;SDS011;66855;45.414;11.082;2023-02-28T13:21:26;9.10;;;4.30;;
77400;SDS011;66855;45.414;11.082;2023-02-28T13:26:22;9.20;;;4.40;;
77400;SDS011;66855;45.414;11.082;2023-02-28T13:34:40;9.30;;;5.00;;
77400;SDS011;66855;45.414;11.082;2023-02-28T13:39:56;7.50;;;4.60;;
77400;SDS011;66855;45.414;11.082;2023-02-28T13:42:35;8.40;;;4.70;;
77400;SDS011;66855;45.414;11.082;2023-02-28T13:47:33;7.20;;;4.50;;
77400;SDS011;66855;45.414;11.082;2023-02-28T13:50:16;10.30;;;4.70;;
77400;SDS011;66855;45.414;11.082;2023-02-28T13:52:52;6.90;;;4.30;;
77400;SDS011;66855;45.414;11.082;2023-02-28T13:55:43;7.10;;;4.20;;
77400;SDS011;66855;45.414;11.082;2023-02-28T14:06:29;6.70;;;4.30;;
77400;SDS011;66855;45.414;11.082;2023-02-28T14:09:03;8.20;;;4.90;;
77400;SDS011;66855;45.414;11.082;2023-02-28T14:11:42;7.80;;;4.50;;
77400;SDS011;66855;45.414;11.082;2023-02-28T14:14:53;9.70;;;5.20;;
77400;SDS011;66855;45.414;11.082;2023-02-28T14:17:01;8.80;;;4.70;;
77400;SDS011;66855;45.414;11.082;2023-02-28T14:19:30;7.70;;;4.20;;
77400;SDS011;66855;45.414;11.082;2023-02-28T14:22:16;10.20;;;4.70;;
77400;SDS011;66855;45.414;11.082;2023-02-28T14:30:29;9.20;;;5.40;;
77400;SDS011;66855;45.414;11.082;2023-02-28T14:36:10;8.30;;;5.10;;
77400;SDS011;66855;45.414;11.082;2023-02-28T14:38:42;8.60;;;4.70;;
77400;SDS011;66855;45.414;11.082;2023-02-28T14:41:15;8.60;;;4.80;;
77400;SDS011;66855;45.414;11.082;2023-02-28T14:44:11;8.20;;;4.70;;
77400;SDS011;66855;45.414;11.082;2023-02-28T14:46:39;7.40;;;5.10;;
77400;SDS011;66855;45.414;11.082;2023-02-28T14:49:12;8.00;;;4.70;;
77400;SDS011;66855;45.414;11.082;2023-02-28T14:51:44;7.40;;;4.50;;
77400;SDS011;66855;45.414;11.082;2023-02-28T14:54:12;8.20;;;5.10;;
77400;SDS011;66855;45.414;11.082;2023-02-28T14:56:40;10.50;;;4.80;;
77400;SDS011;66855;45.414;11.082;2023-02-28T14:59:23;7.60;;;5.10;;
77400;SDS011;66855;45.414;11.082;2023-02-28T15:02:13;10.60;;;4.90;;
77400;SDS011;66855;45.414;11.082;2023-02-28T15:04:43;8.00;;;4.90;;
77400;SDS011;66855;45.414;11.082;2023-02-28T15:07:15;8.00;;;5.10;;
77400;SDS011;66855;45.414;11.082;2023-02-28T15:09:41;8.30;;;5.30;;
77400;SDS011;66855;45.414;11.082;2023-02-28T15:12:07;7.70;;;5.20;;
77400;SDS011;66855;45.414;11.082;2023-02-28T15:14:39;7.10;;;5.10;;
77400;SDS011;66855;45.414;11.082;2023-02-28T15:17:09;9.70;;;4.70;;
77400;SDS011;66855;45.414;11.082;2023-02-28T15:19:43;8.40;;;4.90;;
77400;SDS011;66855;45.414;11.082;2023-02-28T15:22:16;8.30;;;4.80;;
77400;SDS011;66855;45.414;11.082;2023-02-28T15:24:47;7.60;;;4.70;;
77400;SDS011;66855;45.414;11.082;2023-02-28T15:27:20;13.90;;;5.50;;
77400;SDS011;66855;45.414;11.082;2023-02-28T15:29:49;12.20;;;5.00;;
77400;SDS011;66855;45.414;11.082;2023-02-28T15:32:25;8.90;;;4.20;;
77400;SDS011;66855;45.414;11.082;2023-02-28T15:34:51;11.20;;;5.30;;
77400;SDS011;66855;45.414;11.082;2023-02-28T15:40:18;7.90;;;5.10;;
77400;SDS011;66855;45.414;11.082;2023-02-28T15:45:45;10.70;;;5.10;;
77400;SDS011;66855;45.414;11.082;2023-02-28T15:48:15;10.20;;;5.10;;
77400;SDS011;66855;45.414;11.082;2023-02-28T15:50:43;9.30;;;5.10;;
77400;SDS011;66855;45.414;11.082;2023-02-28T15:53:14;8.70;;;4.60;;
77400;SDS011;66855;45.414;11.082;2023-02-28T15:55:42;9.20;;;4.90;;
77400;SDS011;66855;45.414;11.082;2023-02-28T15:58:08;13.60;;;5.40;;
77400;SDS011;66855;45.414;11.082;2023-02-28T16:00:38;9.60;;;4.80;;
77400;SDS011;66855;45.414;11.082;2023-02-28T16:03:27;8.90;;;5.10;;
77400;SDS011;66855;45.414;11.082;2023-02-28T16:06:32;8.30;;;5.00;;
77400;SDS011;66855;45.414;11.082;2023-02-28T16:09:15;10.00;;;5.10;;
77400;SDS011;66855;45.414;11.082;2023-02-28T16:11:43;9.40;;;5.10;;
77400;SDS011;66855;45.414;11.082;2023-02-28T16:14:13;10.50;;;5.00;;
77400;SDS011;66855;45.414;11.082;2023-02-28T16:16:54;7.20;;;4.40;;
77400;SDS011;66855;45.414;11.082;2023-02-28T16:19:22;9.20;;;4.90;;
77400;SDS011;66855;45.414;11.082;2023-02-28T16:21:48;8.70;;;5.00;;
77400;SDS011;66855;45.414;11.082;2023-02-28T16:24:14;9.60;;;5.30;;
77400;SDS011;66855;45.414;11.082;2023-02-28T16:26:40;8.20;;;4.30;;
77400;SDS011;66855;45.414;11.082;2023-02-28T16:29:09;8.50;;;5.50;;
77400;SDS011;66855;45.414;11.082;2023-02-28T16:31:40;12.40;;;5.60;;
77400;SDS011;66855;45.414;11.082;2023-02-28T16:34:06;8.80;;;4.90;;
77400;SDS011;66855;45.414;11.082;2023-02-28T16:36:32;8.20;;;4.60;;
77400;SDS011;66855;45.414;11.082;2023-02-28T16:38:58;10.00;;;5.10;;
77400;SDS011;66855;45.414;11.082;2023-02-28T16:41:25;8.90;;;5.00;;
77400;SDS011;66855;45.414;11.082;2023-02-28T16:46:24;8.40;;;5.10;;
77400;SDS011;66855;45.414;11.082;2023-02-28T16:48:57;8.80;;;4.70;;
77400;SDS011;66855;45.414;11.082;2023-02-28T16:51:23;8.70;;;4.90;;
77400;SDS011;66855;45.414;11.082;2023-02-28T16:53:49;10.40;;;5.40;;
77400;SDS011;66855;45.414;11.082;2023-02-28T16:56:19;8.40;;;4.80;;
77400;SDS011;66855;45.414;11.082;2023-02-28T16:58:47;8.00;;;4.70;;
77400;SDS011;66855;45.414;11.082;2023-02-28T17:01:13;10.30;;;5.40;;
77400;SDS011;66855;45.414;11.082;2023-02-28T17:03:40;9.80;;;5.30;;
77400;SDS011;66855;45.414;11.082;2023-02-28T17:06:19;21.70;;;10.50;;
77400;SDS011;66855;45.414;11.082;2023-02-28T17:08:49;24.60;;;8.70;;
77400;SDS011;66855;45.414;11.082;2023-02-28T17:11:16;11.90;;;4.40;;
77400;SDS011;66855;45.414;11.082;2023-02-28T17:13:43;9.50;;;4.70;;
77400;SDS011;66855;45.414;11.082;2023-02-28T17:16:15;9.40;;;4.20;;
77400;SDS011;66855;45.414;11.082;2023-02-28T17:18:46;8.90;;;4.30;;
77400;SDS011;66855;45.414;11.082;2023-02-28T17:21:13;9.30;;;4.70;;